Etusivu
METAR-TAF:

METAR-TAF

Lentoasemat :

Yap, Yap Island, Mikronesia

Yapin kansainvälinen lentoasema

Leveyspiiri: 09-29N, Pituuspiiri: 138-05E, korkeus merenpinnasta: 28 m

Tämänhetkinen sää

Tämä raportti tehtiin 19 minuuttia sitten, kello 23.51 UTC
Tuuli 9 kn idästä
Lämpötila 30°C
Kosteus 79%
Ilmanpaine 1011 hPa
Näkyvyys: 19.3 km
Hajanaisia pilviä 1600 ft:n korkeudessa, Kasvava cumulus-pilvi.
Hajanaisia pilviä 13000 ft:n korkeudessa
Hajonneita pilviä 30000 ft:n korkeudessa

METAR: PTYA 282351Z 08009KT 12SM SCT016TCU SCT130 BKN300 30/26 A2984 RMK TCU SE AND W SLP105 8/271 T02960260 10296 20263 52012

Aika: 10:10 (00:10 UTC)

Sääennuste

Tämä raportti tehtiin 46 minuuttia sitten, kello 23.24 UTC
Ennuste voimassa 29. päivästä klo 00 UTC - 29. päivään klo 24 UTC
Tuuli 10 kn idästä/koillisesta
Näkyvyys: 10 km
Muutamia pilviä 1600 ft:n korkeudessa
Hajanaisia pilviä 13000 ft:n korkeudessa
sadekuuroja näköpiirissä

TAF: PTYA 282324Z 2900/2924 07010KT P6SM VCSH FEW016 SCT130

Säähavainnot ja -ennusteet yli 4000 lentoasemalta (METAR- ja TAF-raportit).

Käytössä olevat sääasemat on merkitty karttaan keltaisilla ja punaisilla pisteillä.

Aseta hiiri pisteen päälle nähdäksesi sääaseman nimen.

Klikkaa sitten nähdäksesi säähavainnot ja -ennusteet.

Kartan vaihtaminen: klikkaa mustalla rastilla varustettuja vihreitä pisteitä, niin voit zoomata sisään; viivalla varustettua vihreää pistettä, niin voit zoomata ulos tai vihreitä nuolia, niin pääset viereisille kartoille.


METAR-TAF: